Time;durP1;ratioP1;P1;durP2;ratioP2;P2;SDS_P1;SDS_P2;PMS_P1;PMS_P2;Temp;Humidity;BMP_temperature;BMP_pressure;BME280_temperature;BME280_humidity;BME280_pressure;Samples;Min_cycle;Max_cycle;Signal;HPM_P1;HPM_P2
2022/09/03 00:00:12;;;;;;;8.20;1.40;;;;;;;16.59;56.84;101566.97;5051841;28;20035;-71
2022/09/03 00:02:47;;;;;;;4.65;1.00;;;;;;;16.59;56.50;101573.31;4990867;28;20046;-71
2022/09/03 00:05:17;;;;;;;6.00;1.20;;;;;;;16.43;56.90;101568.78;5059828;28;20029;-71
2022/09/03 00:08:04;;;;;;;5.60;1.20;;;;;;;16.33;57.14;101562.69;5050559;28;20485;-71
2022/09/03 00:10:43;;;;;;;6.75;1.33;;;;;;;16.46;56.91;101562.97;5051379;28;20111;-71
2022/09/03 00:13:15;;;;;;;2.30;1.08;;;;;;;16.39;57.46;101559.25;5051124;28;20024;-70
2022/09/03 00:15:40;;;;;;;2.28;1.00;;;;;;;16.32;57.38;101560.13;5051037;28;20017;-70
2022/09/03 00:18:17;;;;;;;5.85;0.93;;;;;;;16.21;57.60;101556.78;5050853;28;20098;-71
2022/09/03 00:20:53;;;;;;;1.98;0.88;;;;;;;16.09;57.99;101560.06;5051097;28;20256;-70
2022/09/03 00:23:23;;;;;;;10.23;1.25;;;;;;;16.18;57.72;101553.56;5051373;28;20017;-71
2022/09/03 00:26:03;;;;;;;7.32;1.05;;;;;;;16.40;57.48;101558.22;5051318;28;20024;-71
2022/09/03 00:28:35;;;;;;;2.20;0.90;;;;;;;16.10;57.86;101561.75;5050453;28;20016;-70
2022/09/03 00:31:25;;;;;;;4.38;0.90;;;;;;;15.99;58.33;101561.16;5050460;28;20024;-70
2022/09/03 00:33:55;;;;;;;5.95;1.15;;;;;;;15.97;58.45;101563.22;5050397;28;20027;-71
2022/09/03 00:36:41;;;;;;;4.15;1.15;;;;;;;16.02;58.04;101571.69;5050428;28;20029;-70
2022/09/03 00:39:09;;;;;;;1.80;1.00;;;;;;;15.98;58.19;101567.66;5050246;28;20020;-70
2022/09/03 00:41:53;;;;;;;2.30;1.02;;;;;;;15.82;58.69;101567.69;5050755;28;20119;-71
2022/09/03 00:44:35;;;;;;;1.73;1.15;;;;;;;16.06;58.34;101571.38;5048898;28;20032;-70
2022/09/03 00:47:20;;;;;;;7.03;0.88;;;;;;;16.20;57.95;101563.25;5050941;28;20020;-70
2022/09/03 00:50:14;;;;;;;3.58;1.27;;;;;;;16.06;57.98;101561.28;5054620;28;20542;-70
2022/09/03 00:53:17;;;;;;;7.63;1.35;;;;;;;15.89;58.35;101560.50;5067851;28;20026;-71
2022/09/03 00:55:46;;;;;;;1.55;0.90;;;;;;;15.64;59.16;101567.03;5067945;28;20036;-70
2022/09/03 00:58:36;;;;;;;4.15;1.52;;;;;;;15.93;58.48;101561.84;5049879;28;20016;-70
2022/09/03 01:01:14;;;;;;;4.10;0.98;;;;;;;15.92;58.97;101560.16;5049777;28;20079;-70
2022/09/03 01:03:55;;;;;;;3.28;1.10;;;;;;;15.87;58.92;101567.16;5049917;28;20024;-69
2022/09/03 01:06:31;;;;;;;4.25;1.10;;;;;;;15.74;59.23;101559.53;5050151;28;20020;-70
2022/09/03 01:09:40;;;;;;;2.47;0.93;;;;;;;15.73;59.04;101566.03;5050054;28;20067;-70
2022/09/03 01:12:47;;;;;;;2.97;1.25;;;;;;;15.71;59.32;101573.50;5048696;28;20032;-70
2022/09/03 01:15:37;;;;;;;2.05;1.33;;;;;;;15.81;59.26;101568.72;5038989;28;20037;-70
2022/09/03 01:18:20;;;;;;;2.03;1.13;;;;;;;15.72;59.11;101564.31;5053251;28;20027;-70
2022/09/03 01:21:04;;;;;;;2.95;1.10;;;;;;;15.80;59.14;101567.03;5052744;28;20035;-70
2022/09/03 01:23:42;;;;;;;6.38;1.38;;;;;;;15.80;58.99;101549.78;5049755;28;20021;-70
2022/09/03 01:26:16;;;;;;;3.00;1.17;;;;;;;15.65;59.78;101557.84;5048960;28;20040;-71
2022/09/03 01:28:55;;;;;;;2.30;1.50;;;;;;;15.70;59.47;101555.44;5049692;28;20024;-69
2022/09/03 01:32:05;;;;;;;2.72;1.33;;;;;;;15.66;59.50;101562.28;5049689;28;20024;-70
2022/09/03 01:34:47;;;;;;;4.75;1.08;;;;;;;15.76;59.32;101557.47;5018471;28;20135;-70
2022/09/03 01:37:49;;;;;;;6.05;1.20;;;;;;;15.53;60.12;101556.50;5049815;28;20082;-71
2022/09/03 01:40:14;;;;;;;1.23;1.10;;;;;;;15.53;59.86;101562.78;5050599;28;20029;-70
2022/09/03 01:43:16;;;;;;;1.98;1.02;;;;;;;15.60;59.62;101557.50;5049643;28;20036;-70
2022/09/03 01:46:00;;;;;;;2.88;0.90;;;;;;;15.48;59.98;101552.38;5049726;28;20020;-71
2022/09/03 01:48:42;;;;;;;1.63;1.00;;;;;;;15.56;60.11;101553.41;5041984;28;20020;-72
2022/09/03 01:51:18;;;;;;;4.28;1.13;;;;;;;15.45;60.00;101555.47;5065987;28;20027;-70
2022/09/03 01:54:34;;;;;;;2.15;0.90;;;;;;;15.47;59.53;101556.16;5066021;28;20497;-70
2022/09/03 01:57:12;;;;;;;3.03;1.08;;;;;;;15.59;59.72;101558.53;5056999;28;20028;-70
2022/09/03 01:59:50;;;;;;;3.47;1.13;;;;;;;15.76;58.94;101549.28;5066241;28;20025;-70
2022/09/03 02:02:22;;;;;;;1.90;1.00;;;;;;;15.58;59.56;101551.34;5065648;28;20024;-70
2022/09/03 02:05:07;;;;;;;3.50;1.08;;;;;;;15.34;60.12;101550.38;5065675;28;20017;-71
2022/09/03 02:07:37;;;;;;;1.45;1.00;;;;;;;15.35;60.10;101557.53;5067588;28;20037;-71
2022/09/03 02:10:07;;;;;;;3.30;1.27;;;;;;;15.43;59.60;101553.94;5067918;28;20111;-71
2022/09/03 02:12:37;;;;;;;4.70;1.48;;;;;;;15.28;60.48;101551.06;5065579;28;20138;-71
2022/09/03 02:15:08;;;;;;;5.15;1.40;;;;;;;15.42;59.92;101553.09;5050614;28;20031;-71
2022/09/03 02:17:35;;;;;;;3.13;1.67;;;;;;;15.50;59.49;101554.09;5048248;28;20101;-71
2022/09/03 02:20:10;;;;;;;3.10;1.30;;;;;;;15.30;60.47;101549.00;5050728;28;20032;-71
2022/09/03 02:22:37;;;;;;;2.88;1.15;;;;;;;15.18;60.44;101550.38;5051118;28;20430;-71
2022/09/03 02:25:03;;;;;;;7.43;1.30;;;;;;;15.21;60.67;101555.50;5050533;28;20020;-71
2022/09/03 02:27:29;;;;;;;5.95;1.20;;;;;;;15.37;60.12;101544.56;5050822;28;20017;-71
2022/09/03 02:29:56;;;;;;;4.65;1.15;;;;;;;15.41;60.06;101556.84;5049614;28;20024;-71
2022/09/03 02:32:21;;;;;;;1.58;1.13;;;;;;;15.28;60.61;101545.59;5051241;28;20024;-71
2022/09/03 02:34:47;;;;;;;5.78;1.20;;;;;;;15.29;60.39;101552.75;5050436;28;20067;-71
2022/09/03 02:37:14;;;;;;;5.57;1.27;;;;;;;15.30;60.14;101549.00;5051446;28;20024;-71
2022/09/03 02:39:40;;;;;;;7.10;1.58;;;;;;;15.22;60.40;101554.47;5050439;28;20031;-70
2022/09/03 02:42:06;;;;;;;2.30;1.10;;;;;;;15.07;61.17;101548.03;5050316;28;20025;-70
2022/09/03 02:44:36;;;;;;;2.47;1.10;;;;;;;15.08;61.06;101549.72;5050995;28;20031;-71
2022/09/03 02:47:04;;;;;;;3.65;1.25;;;;;;;15.16;60.53;101553.28;5050985;28;20043;-70
2022/09/03 02:49:31;;;;;;;2.58;1.02;;;;;;;15.32;60.16;101548.81;5058671;28;20032;-70
2022/09/03 02:51:59;;;;;;;5.88;1.30;;;;;;;15.34;59.84;101555.84;5068745;28;20032;-70
2022/09/03 02:54:26;;;;;;;1.55;1.13;;;;;;;15.20;59.83;101551.09;5067651;28;20020;-71
2022/09/03 02:56:51;;;;;;;4.70;1.42;;;;;;;15.28;59.79;101555.66;5067247;28;20024;-70
2022/09/03 02:59:17;;;;;;;3.40;1.20;;;;;;;15.07;60.47;101553.47;5066937;28;20082;-70
2022/09/03 03:01:42;;;;;;;3.50;1.23;;;;;;;14.95;60.85;101552.13;5068023;28;20029;-71
2022/09/03 03:04:08;;;;;;;2.95;1.20;;;;;;;14.98;61.20;101549.03;5067364;28;20028;-70
2022/09/03 03:06:33;;;;;;;2.38;1.20;;;;;;;15.08;60.55;101555.19;5066554;28;20032;-70
2022/09/03 03:08:58;;;;;;;2.70;1.27;;;;;;;14.71;62.06;101548.34;5067879;28;20025;-70
2022/09/03 03:11:26;;;;;;;2.97;1.30;;;;;;;14.69;62.17;101550.38;5068948;28;20024;-70
2022/09/03 03:13:52;;;;;;;2.38;1.30;;;;;;;14.69;62.02;101544.09;5055957;28;20020;-70
2022/09/03 03:16:17;;;;;;;1.73;1.30;;;;;;;14.74;61.68;101533.53;5050479;28;20025;-70
2022/09/03 03:18:45;;;;;;;1.70;1.20;;;;;;;14.81;61.52;101554.50;5042535;28;20032;-71
2022/09/03 03:21:14;;;;;;;2.80;1.08;;;;;;;14.85;61.57;101544.94;5067721;28;20085;-70
2022/09/03 03:23:40;;;;;;;4.32;1.17;;;;;;;14.72;62.24;101543.72;5068809;28;20016;-71
2022/09/03 03:26:09;;;;;;;5.93;1.30;;;;;;;14.70;61.94;101540.34;5049997;28;20038;-70
2022/09/03 03:28:35;;;;;;;2.80;1.17;;;;;;;14.58;62.78;101539.81;5049148;28;20036;-70
2022/09/03 03:31:11;;;;;;;3.15;1.17;;;;;;;14.50;63.02;101539.78;5050204;28;20115;-70
2022/09/03 03:33:37;;;;;;;2.40;1.80;;;;;;;14.36;63.00;101542.13;5049955;28;20025;-70
2022/09/03 03:36:08;;;;;;;6.68;1.30;;;;;;;14.37;63.34;101541.09;5049712;28;20043;-70
2022/09/03 03:38:34;;;;;;;2.42;1.20;;;;;;;14.47;63.24;101553.75;5050764;28;20020;-70
2022/09/03 03:41:06;;;;;;;4.57;1.30;;;;;;;14.55;62.53;101548.34;5050363;28;20021;-70
2022/09/03 03:43:32;;;;;;;;;;;;;;;14.49;62.82;101543.53;5039158;28;20036;-70
2022/09/03 03:45:57;;;;;;;;;;;;;;;14.48;62.67;101552.75;5034531;28;19908;-70
2022/09/03 03:48:23;;;;;;;;;;;;;;;14.63;62.28;101556.50;5034031;28;20406;-70
2022/09/03 03:50:48;;;;;;;;;;;;;;;14.52;62.87;101559.53;5032331;28;19913;-70
2022/09/03 03:53:13;;;;;;;;;;;;;;;14.51;62.81;101564.16;5051303;28;20332;-70
2022/09/03 03:55:39;;;;;;;;;;;;;;;14.58;62.49;101569.78;5034038;28;19998;-70
2022/09/03 03:58:04;;;;;;;;;;;;;;;14.67;61.94;101568.78;5051304;28;19909;-70
2022/09/03 04:00:29;;;;;;;;;;;;;;;14.50;62.42;101561.59;5034438;28;19915;-70
2022/09/03 04:02:55;;;;;;;;;;;;;;;14.48;63.49;101563.66;5034342;28;19913;-70
2022/09/03 04:05:20;;;;;;;;;;;;;;;14.61;62.43;101564.00;5033800;28;19909;-70
2022/09/03 04:07:45;;;;;;;;;;;;;;;14.49;62.86;101554.44;5051609;28;19919;-69
2022/09/03 04:10:11;;;;;;;;;;;;;;;14.50;62.63;101561.59;5050973;28;20277;-72
2022/09/03 04:12:36;;;;;;;;;;;;;;;14.47;62.73;101561.91;5033724;28;19908;-70
2022/09/03 04:15:01;;;;;;;;;;;;;;;14.25;63.07;101557.91;5083210;28;20090;-70
2022/09/03 04:17:27;;;;;;;;;;;;;;;14.48;62.48;101569.09;5065497;28;19908;-70
2022/09/03 04:19:52;;;;;;;;;;;;;;;14.42;62.81;101564.28;5044023;28;19958;-70
2022/09/03 04:22:19;;;;;;;;;;;;;;;14.73;61.64;101561.78;5033702;28;19958;-70
2022/09/03 04:24:44;;;;;;;;;;;;;;;14.44;62.54;101556.78;5033226;28;19908;-70
2022/09/03 04:27:10;;;;;;;;;;;;;;;14.17;63.15;101547.84;5050852;28;19916;-70
2022/09/03 04:29:35;;;;;;;;;;;;;;;14.23;62.96;101555.38;5032420;28;19917;-70
2022/09/03 04:34:44;;;;;;;;;;;;;;;14.36;62.33;101555.75;5054643;28;19991;-70
2022/09/03 04:37:10;;;;;;;;;;;;;;;14.27;62.97;101551.28;5052975;28;20007;-70
2022/09/03 04:39:35;;;;;;;;;;;;;;;14.39;62.62;101554.53;5070644;28;19912;-70
2022/09/03 04:42:01;;;;;;;;;;;;;;;14.42;62.40;101556.09;5071157;28;19919;-70
2022/09/03 04:44:26;;;;;;;;;;;;;;;14.25;62.34;101553.31;5049517;28;19919;-69
2022/09/03 04:46:52;;;;;;;;;;;;;;;14.14;63.01;101559.06;5049949;28;19917;-69
2022/09/03 04:49:17;;;;;;;;;;;;;;;14.28;62.53;101555.72;5042659;28;19916;-70
2022/09/03 04:51:42;;;;;;;;;;;;;;;14.26;62.33;101557.75;5069279;28;19908;-70
2022/09/03 04:54:09;;;;;;;;;;;;;;;14.08;63.51;101562.44;5052305;28;19985;-70
2022/09/03 04:56:34;;;;;;;;;;;;;;;14.18;62.98;101563.19;5070217;28;19944;-70
2022/09/03 04:59:04;;;;;;;;;;;;;;;14.15;62.83;101571.69;5070380;28;19984;-70
2022/09/03 05:01:31;;;;;;;;;;;;;;;14.18;62.49;101574.06;5070236;28;20018;-69
2022/09/03 05:03:56;;;;;;;;;;;;;;;14.12;62.56;101575.56;5052362;28;20373;-71
2022/09/03 05:06:22;;;;;;;;;;;;;;;14.25;62.62;101571.53;5052685;28;19944;-69
2022/09/03 05:08:51;;;;;;;;;;;;;;;14.27;62.59;101575.78;5070464;28;19908;-70
2022/09/03 05:11:17;;;;;;;;;;;;;;;14.30;62.60;101582.78;5052274;28;20000;-70
2022/09/03 05:13:42;;;;;;;;;;;;;;;14.46;61.72;101579.25;5052985;28;19923;-70
2022/09/03 05:16:09;;;;;;;;;;;;;;;14.26;61.90;101560.47;5052563;28;19913;-70
2022/09/03 05:18:34;;;;;;;;;;;;;;;14.64;61.10;101569.13;5069127;28;19908;-69
2022/09/03 05:21:04;;;;;;;;;;;;;;;14.77;61.12;101564.03;5052332;28;19958;-70
2022/09/03 05:23:30;;;;;;;;;;;;;;;14.72;61.01;101560.94;5052175;28;19962;-70
2022/09/03 05:25:57;;;;;;;;;;;;;;;14.69;61.25;101566.75;5070526;28;20326;-70
2022/09/03 05:28:22;;;;;;;;;;;;;;;14.74;60.37;101569.81;5051752;28;19923;-70
2022/09/03 05:30:56;;;;;;;;;;;;;;;14.76;60.62;101562.31;5037199;28;19913;-70
2022/09/03 05:33:22;;;;;;;;;;;;;;;14.62;60.71;101557.53;5040608;28;19915;-70
2022/09/03 05:35:48;;;;;;;;;;;;;;;14.90;60.27;101558.91;5047689;28;19912;-70
2022/09/03 05:38:14;;;;;;;;;;;;;;;14.80;60.70;101552.78;5040206;28;19908;-71
2022/09/03 05:40:40;;;;;;;;;;;;;;;14.97;60.11;101558.22;5036270;28;20433;-70
2022/09/03 05:43:05;;;;;;;;;;;;;;;14.99;60.39;101558.91;5042739;28;20027;-70
2022/09/03 05:45:31;;;;;;;;;;;;;;;15.14;59.37;101565.41;5061946;28;19908;-70
2022/09/03 05:47:58;;;;;;;;;;;;;;;15.12;59.57;101561.97;5040877;28;19916;-70
2022/09/03 05:50:23;;;;;;;;;;;;;;;15.30;59.02;101554.47;5058294;28;19919;-70
2022/09/03 05:52:48;;;;;;;;;;;;;;;15.17;59.35;101554.97;5059993;28;19912;-70
2022/09/03 05:55:14;;;;;;;;;;;;;;;15.24;59.32;101555.16;5057592;28;19938;-70
2022/09/03 05:57:40;;;;;;;;;;;;;;;15.25;59.28;101566.91;5047300;28;19916;-70
2022/09/03 06:00:05;;;;;;;;;;;;;;;15.46;58.77;101565.38;5042287;28;19939;-70
2022/09/03 06:02:31;;;;;;;;;;;;;;;15.45;58.32;101569.13;5042665;28;19908;-70
2022/09/03 06:04:56;;;;;;;;;;;;;;;15.54;58.62;101571.84;5039645;28;19965;-70
2022/09/03 06:07:23;;;;;;;;;;;;;;;15.51;58.18;101572.16;5037382;28;19912;-71
2022/09/03 06:09:49;;;;;;;;;;;;;;;15.55;58.93;101573.53;5055563;28;19952;-70
2022/09/03 06:12:14;;;;;;;;;;;;;;;15.74;57.71;101573.19;5046227;28;19955;-70
2022/09/03 06:14:39;;;;;;;;;;;;;;;15.66;58.21;101570.47;5058563;28;19943;-70
2022/09/03 06:17:05;;;;;;;;;;;;;;;15.69;58.06;101578.31;5040999;28;19915;-70
2022/09/03 06:19:30;;;;;;;;;;;;;;;15.77;58.05;101574.69;5039408;28;20000;-70
2022/09/03 06:21:55;;;;;;;;;;;;;;;15.79;58.23;101559.84;5045076;28;19908;-70
2022/09/03 06:24:26;;;;;;;;;;;;;;;16.12;56.86;101565.19;5058780;28;19908;-70
2022/09/03 06:26:51;;;;;;;;;;;;;;;16.00;56.98;101568.31;5042241;28;19950;-71
2022/09/03 06:29:19;;;;;;;;;;;;;;;16.08;56.76;101563.84;5050750;28;19912;-70
2022/09/03 06:31:44;;;;;;;;;;;;;;;16.27;56.35;101568.88;5051403;28;19908;-71
2022/09/03 06:34:09;;;;;;;;;;;;;;;16.29;56.54;101572.25;5051249;28;19953;-71
2022/09/03 06:36:34;;;;;;;;;;;;;;;16.16;56.31;101566.53;5050782;28;20297;-71
2022/09/03 06:39:00;;;;;;;;;;;;;;;16.09;56.83;101560.06;5050790;28;19909;-71
2022/09/03 06:41:27;;;;;;;;;;;;;;;16.28;56.49;101576.03;5052011;28;19908;-71
2022/09/03 06:43:54;;;;;;;;;;;;;;;16.23;56.76;101575.72;5065627;28;19923;-72
2022/09/03 06:46:21;;;;;;;;;;;;;;;16.59;55.66;101572.44;5043707;28;19920;-71
2022/09/03 06:48:46;;;;;;;;;;;;;;;16.34;56.30;101577.19;5034006;28;19912;-71
2022/09/03 06:51:16;;;;;;;;;;;;;;;16.52;56.02;101567.72;5060699;28;19923;-72
2022/09/03 06:53:42;;;;;;;;;;;;;;;16.71;55.50;101571.03;5056201;28;19912;-72
2022/09/03 06:56:09;;;;;;;;;;;;;;;16.67;55.63;101583.34;5043088;28;19919;-72
2022/09/03 06:58:39;;;;;;;;;;;;;;;16.77;54.78;101575.78;5048142;28;19958;-71
2022/09/03 07:01:05;;;;;;;;;;;;;;;17.01;54.56;101581.06;5051010;28;19969;-72
2022/09/03 07:03:31;;;;;;;;;;;;;;;17.09;54.10;101586.47;5069373;28;19908;-71
2022/09/03 07:06:04;;;;;;;;;;;;;;;17.23;53.75;101581.22;5050792;28;20296;-72
2022/09/03 07:08:31;;;;;;;;;;;;;;;17.17;54.17;101576.50;5050410;28;19931;-71
2022/09/03 07:10:58;;;;;;;;;;;;;;;17.00;54.68;101590.28;5050749;28;19912;-72
2022/09/03 07:13:24;;;;;;;;;;;;;;;17.16;54.21;101581.13;5050357;28;20019;-72
2022/09/03 07:15:56;;;;;;;;;;;;;;;17.04;54.39;101577.97;5047318;28;20147;-72
2022/09/03 07:18:22;;;;;;;;;;;;;;;17.19;54.59;101579.88;5048819;28;19962;-70
2022/09/03 07:20:47;;;;;;;;;;;;;;;17.27;54.39;101577.06;5037898;28;20358;-70
2022/09/03 07:23:15;;;;;;;;;;;;;;;17.44;53.90;101578.63;5034930;28;19909;-70
2022/09/03 07:25:40;;;;;;;;;;;;;;;17.51;53.54;101579.59;5033885;28;19909;-72
2022/09/03 07:28:05;;;;;;;;;;;;;;;17.53;53.38;101593.94;5034059;28;19909;-70
2022/09/03 07:30:31;;;;;;;;;;;;;;;17.53;53.51;101582.97;5050951;28;19954;-70
2022/09/03 07:33:00;;;;;;;;;;;;;;;17.92;52.83;101587.38;5073007;28;20372;-70
2022/09/03 07:35:26;;;;;;;;;;;;;;;18.01;52.59;101578.03;5054076;28;19938;-70
2022/09/03 07:37:51;;;;;;;;;;;;;;;18.28;52.21;101575.66;5047306;28;19908;-70
2022/09/03 07:40:18;;;;;;;;;;;;;;;18.27;52.19;101590.41;5040743;28;19916;-70
2022/09/03 07:42:44;;;;;;;;;;;;;;;18.45;51.62;101582.59;5039820;28;19915;-70
2022/09/03 07:45:09;;;;;;;;;;;;;;;18.44;51.45;101580.88;5053924;28;19908;-70
2022/09/03 07:47:35;;;;;;;;;;;;;;;18.53;51.34;101582.50;5051677;28;19912;-69
2022/09/03 07:50:00;;;;;;;;;;;;;;;18.49;51.12;101577.59;5073238;28;19916;-69
2022/09/03 07:52:26;;;;;;;;;;;;;;;18.54;51.52;101584.19;5056468;28;19995;-70
2022/09/03 07:54:52;;;;;;;;;;;;;;;18.82;50.89;101583.47;5055973;28;19956;-69
2022/09/03 07:57:17;;;;;;;;;;;;;;;18.86;50.55;101584.78;5073754;28;19939;-70
2022/09/03 07:59:42;;;;;;;;;;;;;;;19.04;50.53;101576.94;5073730;28;19912;-70
2022/09/03 08:02:08;;;;;;;;;;;;;;;19.16;50.15;101586.31;5055551;28;19916;-70
2022/09/03 08:04:35;;;;;;;;;;;;;;;19.24;49.70;101583.47;5073226;28;19991;-70
2022/09/03 08:07:03;;;;;;;;;;;;;;;19.71;48.97;101579.19;5051235;28;19920;-70
2022/09/03 08:09:28;;;;;;;;;;;;;;;19.70;49.52;101577.50;5041102;28;19915;-72
2022/09/03 08:11:53;;;;;;;;;;;;;;;20.06;48.66;101581.94;5064989;28;19909;-71
2022/09/03 08:14:19;;;;;;;;;;;;;;;19.90;48.33;101576.78;5053331;28;20050;-70
2022/09/03 08:16:48;;;;;;;;;;;;;;;19.89;47.44;101569.59;5085305;28;20074;-71
2022/09/03 08:19:14;;;;;;;;;;;;;;;19.91;48.32;101578.47;5071137;28;19912;-72
2022/09/03 08:21:43;;;;;;;;;;;;;;;20.19;47.79;101571.00;5062998;28;19909;-71
2022/09/03 08:24:09;;;;;;;;;;;;;;;20.34;47.07;101579.09;5071135;28;20529;-72
2022/09/03 08:26:36;;;;;;;;;;;;;;;20.35;47.36;101568.97;5071614;28;20280;-72
2022/09/03 08:29:02;;;;;;;;;;;;;;;20.45;47.01;101574.94;5051645;28;19915;-68
2022/09/03 08:31:28;;;;;;;;;;;;;;;20.24;48.01;101574.00;5053350;28;19908;-72
2022/09/03 08:33:55;;;;;;;;;;;;;;;20.67;46.27;101568.25;5053305;28;20023;-71
2022/09/03 08:36:21;;;;;;;;;;;;;;;20.96;45.93;101566.19;5071411;28;19920;-70
2022/09/03 08:38:47;;;;;;;;;;;;;;;20.86;45.82;101567.44;5053698;28;19954;-71
2022/09/03 08:41:20;;;;;;;;;;;;;;;21.05;45.49;101564.91;5042275;28;19948;-71
2022/09/03 08:43:57;;;;;;;;;;;;;;;21.15;44.85;101562.59;5043064;28;20023;-70
2022/09/03 08:46:31;;;;;;;;;;;;;;;21.56;44.55;101561.53;5036564;28;19912;-71
2022/09/03 08:48:58;;;;;;;;;;;;;;;21.43;44.49;101567.06;5043568;28;19912;-70
2022/09/03 08:51:26;;;;;;;;;;;;;;;21.28;44.76;101559.00;5036364;28;19908;-71
2022/09/03 08:53:56;;;;;;;;;;;;;;;21.36;44.73;101556.91;5036727;28;19926;-70
2022/09/03 08:56:29;;;;;;;;;;;;;;;20.82;45.37;101563.41;5058504;28;19939;-71
2022/09/03 08:58:55;;;;;;;;;;;;;;;20.65;44.82;101559.34;5052139;28;19939;-70
2022/09/03 09:01:39;;;;;;;;;;;;;;;20.92;44.60;101559.38;5061307;28;19981;-70
2022/09/03 09:04:04;;;;;;;;;;;;;;;21.21;43.92;101567.25;5045593;28;19909;-70
2022/09/03 09:06:45;;;;;;;;;;;;;;;21.31;43.38;101569.59;5039278;28;19908;-70
2022/09/03 09:09:16;;;;;;;;;;;;;;;21.45;43.00;101570.44;5054467;28;20054;-71
2022/09/03 09:11:49;;;;;;;;;;;;;;;21.53;42.97;101561.97;5052517;28;19930;-70
2022/09/03 09:14:22;;;;;;;;;;;;;;;21.93;42.51;101563.59;5043709;28;19909;-71
2022/09/03 09:16:50;;;;;;;;;;;;;;;21.76;42.48;101565.09;5059546;28;19922;-71
2022/09/03 09:19:37;;;;;;;;;;;;;;;22.24;42.04;101559.28;5049551;28;19942;-71
2022/09/03 09:22:09;;;;;;;;;;;;;;;22.15;42.29;101560.56;5046246;28;19915;-71
2022/09/03 09:24:39;;;;;;;;;;;;;;;22.09;42.45;101561.44;5042169;28;20025;-71
2022/09/03 09:27:05;;;;;;;;;;;;;;;21.58;43.27;101556.66;5052517;28;19919;-71
2022/09/03 09:29:32;;;;;;;;;;;;;;;21.43;42.36;101556.03;5058570;28;19913;-70
2022/09/03 09:31:57;;;;;;;;;;;;;;;21.77;42.23;101547.50;5052325;28;19908;-71
2022/09/03 09:34:22;;;;;;;;;;;;;;;22.21;41.57;101556.94;5042303;28;19915;-71
2022/09/03 09:36:50;;;;;;;;;;;;;;;22.47;40.91;101548.53;5036642;28;19927;-71
2022/09/03 09:39:16;;;;;;;;;;;;;;;22.64;41.18;101542.50;5052378;28;19915;-71
2022/09/03 09:41:42;;;;;;;;;;;;;;;22.66;40.79;101545.88;5043365;28;20023;-71
2022/09/03 09:44:18;;;;;;;;;;;;;;;22.71;40.91;101543.31;5042044;28;19917;-71
2022/09/03 09:46:44;;;;;;;;;;;;;;;23.02;40.26;101540.56;5037915;28;20200;-71
2022/09/03 09:49:30;;;;;;;;;;;;;;;22.92;40.31;101540.22;5033157;28;19912;-71
2022/09/03 09:52:06;;;;;;;;;;;;;;;23.04;39.13;101536.72;5059930;28;19908;-71
2022/09/03 09:54:32;;;;;;;;;;;;;;;22.77;39.64;101536.91;5058681;28;20181;-71
2022/09/03 09:57:03;;;;;;;;;;;;;;;23.25;38.69;101541.88;5039327;28;19920;-71
2022/09/03 09:59:30;;;;;;;;;;;;;;;23.25;38.93;101534.41;5058399;28;19908;-71
2022/09/03 10:02:04;;;;;;;;;;;;;;;23.20;38.83;101530.63;5038093;28;19935;-70
2022/09/03 10:04:30;;;;;;;;;;;;;;;23.59;38.11;101523.03;5035316;28;19908;-70
2022/09/03 10:07:01;;;;;;;;;;;;;;;23.50;37.74;101520.56;5042913;28;19908;-71
2022/09/03 10:09:31;;;;;;;;;;;;;;;23.26;37.50;101529.72;5037965;28;19920;-71
2022/09/03 10:12:03;;;;;;;;;;;;;;;22.64;36.83;101513.00;5038394;28;19974;-72
2022/09/03 10:14:35;;;;;;;;;;;;;;;23.02;35.79;101518.47;5044014;28;19912;-72
2022/09/03 10:17:04;;;;;;;;;;;;;;;23.02;34.88;101518.47;5037834;28;19913;-72
2022/09/03 10:20:26;;;;;;;;;;;;;;;23.15;35.06;101530.50;5061448;28;19909;-72
2022/09/03 10:22:41;;;;;;;;;;;;;;;23.46;34.99;101502.75;5063295;28;19912;-72
2022/09/03 10:25:08;;;;;;;;;;;;;;;23.61;34.78;101509.84;5038268;28;19912;-72
2022/09/03 10:27:35;;;;;;;;;;;;;;;23.65;34.30;101517.47;5056445;28;19909;-72
2022/09/03 10:30:00;;;;;;;;;;;;;;;23.61;34.65;101515.38;5059427;28;19931;-72
2022/09/03 10:32:37;;;;;;;;;;;;;;;23.75;34.45;101505.88;5035944;28;19908;-71
2022/09/03 10:35:22;;;;;;;;;;;;;;;23.81;34.67;101511.34;5044546;28;19983;-71
2022/09/03 10:37:47;;;;;;;;;;;;;;;23.22;34.77;101504.50;5055070;28;19916;-72
2022/09/03 10:40:18;;;;;;;;;;;;;;;22.58;36.10;101504.75;5038072;28;19959;-72
2022/09/03 10:42:49;;;;;;;;;;;;;;;22.42;36.77;101495.91;5036911;28;20042;-70
2022/09/03 10:45:34;;;;;;;;;;;;;;;22.23;36.70;101496.88;5054082;28;19920;-71
2022/09/03 10:48:18;;;;;;;;;;;;;;;22.57;36.63;101508.59;5036200;28;19909;-71
2022/09/03 10:50:48;;;;;;;;;;;;;;;22.73;36.12;101513.56;5051933;28;19924;-71
2022/09/03 10:53:28;;;;;;;;;;;;;;;22.85;35.80;101506.25;5045688;28;19920;-72
2022/09/03 10:56:12;;;;;;;;;;;;;;;22.65;36.49;101495.34;5061399;28;19912;-71
2022/09/03 10:58:44;;;;;;;;;;;;;;;22.57;35.94;101487.34;5049320;28;19951;-71
2022/09/03 11:01:35;;;;;;;;;;;;;;;22.37;35.92;101492.16;5063196;28;19982;-71
2022/09/03 11:04:21;;;;;;;;;;;;;;;22.25;35.63;101494.75;5032350;28;19915;-71
2022/09/03 11:06:52;;;;;;;;;;;;;;;22.60;35.39;101466.72;5050779;28;19908;-70
2022/09/03 11:09:20;;;;;;;;;;;;;;;22.46;35.88;101475.09;5034660;28;19909;-71
2022/09/03 11:11:56;;;;;;;;;;;;;;;22.94;35.61;101488.34;5058388;28;19912;-72
2022/09/03 11:14:41;;;;;;;;;;;;;;;23.63;34.32;101480.06;5043636;28;19912;-72
2022/09/03 11:17:18;;;;;;;;;;;;;;;22.97;34.95;101487.91;5048803;28;19924;-71
2022/09/03 11:19:50;;;;;;;;;;;;;;;23.18;34.50;101494.09;5044115;28;20464;-72
2022/09/03 11:22:17;;;;;;;;;;;;;;;23.22;34.10;101484.31;5045647;28;19977;-72
2022/09/03 11:24:44;;;;;;;;;;;;;;;23.13;34.21;101480.13;5042037;28;19909;-72
2022/09/03 11:27:22;;;;;;;;;;;;;;;23.15;34.02;101478.00;5060327;28;19952;-72
2022/09/03 11:29:54;;;;;;;;;;;;;;;22.78;35.04;101482.53;5064871;28;20270;-73
2022/09/03 11:32:34;;;;;;;;;;;;;;;22.71;34.79;101480.66;5035240;28;20302;-72
2022/09/03 11:34:59;;;;;;;;;;;;;;;23.18;33.97;101485.81;5044852;28;20003;-72
2022/09/03 11:37:26;;;;;;;;;;;;;;;23.18;33.99;101472.00;5063869;28;20011;-71
2022/09/03 11:39:56;;;;;;;;;;;;;;;23.76;32.69;101468.88;5043852;28;19908;-72
2022/09/03 11:42:54;;;;;;;;;;;;;;;23.23;33.08;101477.69;5039692;28;19908;-72
2022/09/03 11:45:34;;;;;;;;;;;;;;;23.10;32.43;101480.59;5013318;28;19913;-72
2022/09/03 11:47:59;;;;;;;;;;;;;;;23.08;33.02;101485.47;5036949;28;19915;-70
2022/09/03 11:50:26;;;;;;;;;;;;;;;23.31;32.77;101471.03;5043301;28;19992;-72
2022/09/03 11:52:53;;;;;;;;;;;;;;;23.46;32.92;101464.06;5039697;28;19908;-70
2022/09/03 11:55:32;;;;;;;;;;;;;;;23.83;32.12;101458.56;5049803;28;19939;-72
2022/09/03 11:57:58;;;;;;;;;;;;;;;23.92;31.94;101451.63;5046609;28;20028;-71
2022/09/03 12:00:24;;;;;;;;;;;;;;;24.87;30.44;101442.56;5043709;28;19980;-71
2022/09/03 12:02:53;;;;;;;;;;;;;;;24.74;30.22;101453.88;5031212;28;19909;-70
2022/09/03 12:05:18;;;;;;;;;;;;;;;24.51;30.73;101455.50;5059143;28;19955;-70
2022/09/03 12:07:44;;;;;;;;;;;;;;;25.11;29.47;101449.84;5051547;28;19912;-71
2022/09/03 12:10:33;;;;;;;;;;;;;;;25.09;28.95;101435.38;5060198;28;20327;-71
2022/09/03 12:13:16;;;;;;;;;;;;;;;24.90;30.45;101447.63;5040948;28;19916;-71
2022/09/03 12:15:53;;;;;;;;;;;;;;;24.71;30.39;101455.19;5067080;28;19958;-71
2022/09/03 12:18:28;;;;;;;;;;;;;;;25.06;29.90;101452.50;5070758;28;19912;-71
2022/09/03 12:20:59;;;;;;;;;;;;;;;26.37;28.81;101446.44;5071656;28;19931;-71
2022/09/03 12:23:54;;;;;;;;;;;;;;;26.42;28.84;101443.78;5053424;28;19908;-71
2022/09/03 12:26:24;;;;;;;;;;;;;;;26.68;28.61;101451.47;5050991;28;19930;-71
2022/09/03 12:28:52;;;;;;;;;;;;;;;26.19;28.12;101445.53;5071476;28;19914;-71
2022/09/03 12:31:20;;;;;;;;;;;;;;;26.54;28.11;101441.78;5053099;28;20278;-71
2022/09/03 12:33:50;;;;;;;;;;;;;;;26.47;27.66;101429.97;5052889;28;19956;-70
2022/09/03 12:36:16;;;;;;;;;;;;;;;26.75;27.29;101438.25;5052168;28;19919;-70